Delray Beach, FL

12:30 PM EDT on August 29, 2016 (GMT -0400)
Brads Bedding Plants Inc. | | Change Station

Elev 19 ft 26.47 °N, 80.18 °W | Updated 1 day ago

Cloudy
Cloudy
83 °F
Feels Like 90 °F
N
13
Wind Variable Wind from ESE
Gusts mph

Today
High -- | Low -- °F
--% Chance of Precip.
Yesterday
High -- | Low -- °F
Precip. -- in
Pressure 29.94 in
Visibility 10.0 miles
Clouds Few 2700 ft
Scattered Clouds 14000 ft
Mostly Cloudy 23000 ft
Heat Index 90 °F
Dew Point 75 °F
Humidity 77%
Rainfall in
Snow Depth Not available.
6:59 AM 7:43 PM
Waning Crescent, 8% visible
METAR KPMP 291553Z 11011KT 10SM FEW027 SCT140 BKN230 30/25 A2994 RMK AO2 SLP139 T03000250
Pressure 29.94 in
Visibility 10.0 miles
Clouds Few 2700 ft
Scattered Clouds 14000 ft
Mostly Cloudy 23000 ft
Heat Index 90 °F
Dew Point 75 °F
Humidity 77%
Rainfall in
Snow Depth Not available.
6:59 AM 7:43 PM
Waning Crescent, 8% visible
METAR KPMP 291553Z 11011KT 10SM FEW027 SCT140 BKN230 30/25 A2994 RMK AO2 SLP139 T03000250

10-Day Weather Forecast

Almanac

Astronomy

Aug. 29, 2016 Rise Set
Actual Time
Civil Twilight
Nautical Twilight
Astronomical Twilight
Moon
Length of Visible Light
Length of Day
Tomorrow will be .
, % of the Moon is Illuminated

Today's Extremes

State Highs State Lows

Community

WunderPhotos

Upload Photos

1,935,867 photos uploaded!

WunderBlog® & News

Nearby

Air Quality

  Air Quality AQ Index Pollutant
Not available.

Snow Depth

Station Depth Elevation

Earthquake Activity

City Distance Mag. Time & Date
Minimum magnitude displayed is 2.5.

Coastal Water Temperatures

Place Temperature

Stations

Nearby Weather Stations

Station Location Temp. Windchill Dew Point Humidity Wind Precip. Elev Updated Type
                   

Watches & Warnings

There are currently no watches in effect.